sensor_id;sensor_type;location;lat;lon;timestamp;P1;durP1;ratioP1;P2;durP2;ratioP2
65289;SDS011;51893;59.754;10.110;2023-03-12T00:01:43;2.40;;;1.80;;
65289;SDS011;51893;59.754;10.110;2023-03-12T00:04:13;2.00;;;1.60;;
65289;SDS011;51893;59.754;10.110;2023-03-12T00:06:44;3.00;;;2.00;;
65289;SDS011;51893;59.754;10.110;2023-03-12T00:09:12;2.80;;;2.00;;
65289;SDS011;51893;59.754;10.110;2023-03-12T00:11:44;4.80;;;1.60;;
65289;SDS011;51893;59.754;10.110;2023-03-12T00:14:15;4.50;;;2.30;;
65289;SDS011;51893;59.754;10.110;2023-03-12T00:16:46;3.50;;;1.50;;
65289;SDS011;51893;59.754;10.110;2023-03-12T00:19:20;1.20;;;1.00;;
65289;SDS011;51893;59.754;10.110;2023-03-12T00:21:49;2.10;;;1.40;;
65289;SDS011;51893;59.754;10.110;2023-03-12T00:24:18;1.90;;;1.40;;
65289;SDS011;51893;59.754;10.110;2023-03-12T00:26:46;1.70;;;1.00;;
65289;SDS011;51893;59.754;10.110;2023-03-12T00:29:16;1.70;;;1.20;;
65289;SDS011;51893;59.754;10.110;2023-03-12T00:31:44;1.10;;;1.00;;
65289;SDS011;51893;59.754;10.110;2023-03-12T00:34:17;5.00;;;1.30;;
65289;SDS011;51893;59.754;10.110;2023-03-12T00:36:47;3.00;;;1.90;;
65289;SDS011;51893;59.754;10.110;2023-03-12T00:39:24;2.10;;;1.60;;
65289;SDS011;51893;59.754;10.110;2023-03-12T00:41:52;3.20;;;1.70;;
65289;SDS011;51893;59.754;10.110;2023-03-12T00:44:22;2.70;;;1.70;;
65289;SDS011;51893;59.754;10.110;2023-03-12T00:46:50;1.00;;;0.90;;
65289;SDS011;51893;59.754;10.110;2023-03-12T00:49:23;3.40;;;1.90;;
65289;SDS011;51893;59.754;10.110;2023-03-12T00:51:51;3.10;;;2.10;;
65289;SDS011;51893;59.754;10.110;2023-03-12T00:54:19;2.50;;;1.60;;
65289;SDS011;51893;59.754;10.110;2023-03-12T00:56:49;3.10;;;1.70;;
65289;SDS011;51893;59.754;10.110;2023-03-12T00:59:18;2.10;;;1.60;;
65289;SDS011;51893;59.754;10.110;2023-03-12T01:01:49;2.60;;;1.70;;
65289;SDS011;51893;59.754;10.110;2023-03-12T01:04:24;5.80;;;1.80;;
65289;SDS011;51893;59.754;10.110;2023-03-12T01:06:54;2.70;;;1.20;;
65289;SDS011;51893;59.754;10.110;2023-03-12T01:09:23;1.00;;;0.90;;
65289;SDS011;51893;59.754;10.110;2023-03-12T01:11:51;2.70;;;1.40;;
65289;SDS011;51893;59.754;10.110;2023-03-12T01:14:19;2.60;;;1.50;;
65289;SDS011;51893;59.754;10.110;2023-03-12T01:16:47;0.60;;;0.60;;
65289;SDS011;51893;59.754;10.110;2023-03-12T01:19:18;1.20;;;0.80;;
65289;SDS011;51893;59.754;10.110;2023-03-12T01:21:49;1.90;;;0.90;;
65289;SDS011;51893;59.754;10.110;2023-03-12T01:24:18;2.10;;;0.90;;
65289;SDS011;51893;59.754;10.110;2023-03-12T01:26:46;2.40;;;1.00;;
65289;SDS011;51893;59.754;10.110;2023-03-12T01:29:16;0.60;;;0.60;;
65289;SDS011;51893;59.754;10.110;2023-03-12T01:31:45;3.00;;;1.10;;
65289;SDS011;51893;59.754;10.110;2023-03-12T01:34:18;1.40;;;0.90;;
65289;SDS011;51893;59.754;10.110;2023-03-12T01:36:45;1.50;;;0.70;;
65289;SDS011;51893;59.754;10.110;2023-03-12T01:39:14;0.80;;;0.80;;
65289;SDS011;51893;59.754;10.110;2023-03-12T01:41:42;0.70;;;0.70;;
65289;SDS011;51893;59.754;10.110;2023-03-12T01:44:13;0.70;;;0.70;;
65289;SDS011;51893;59.754;10.110;2023-03-12T01:46:43;1.20;;;0.70;;
65289;SDS011;51893;59.754;10.110;2023-03-12T01:49:23;0.60;;;0.60;;
65289;SDS011;51893;59.754;10.110;2023-03-12T01:52:02;1.30;;;0.60;;
65289;SDS011;51893;59.754;10.110;2023-03-12T01:54:42;0.60;;;0.60;;
65289;SDS011;51893;59.754;10.110;2023-03-12T01:57:17;0.60;;;0.60;;
65289;SDS011;51893;59.754;10.110;2023-03-12T01:59:58;2.30;;;0.90;;
65289;SDS011;51893;59.754;10.110;2023-03-12T02:02:31;1.70;;;0.90;;
65289;SDS011;51893;59.754;10.110;2023-03-12T02:05:08;0.50;;;0.50;;
65289;SDS011;51893;59.754;10.110;2023-03-12T02:07:47;0.60;;;0.60;;
65289;SDS011;51893;59.754;10.110;2023-03-12T02:10:17;0.70;;;0.70;;
65289;SDS011;51893;59.754;10.110;2023-03-12T02:12:48;1.20;;;0.80;;
65289;SDS011;51893;59.754;10.110;2023-03-12T02:15:16;0.70;;;0.70;;
65289;SDS011;51893;59.754;10.110;2023-03-12T02:17:44;0.80;;;0.80;;
65289;SDS011;51893;59.754;10.110;2023-03-12T02:23:35;2.80;;;0.80;;
65289;SDS011;51893;59.754;10.110;2023-03-12T02:26:16;1.10;;;0.70;;
65289;SDS011;51893;59.754;10.110;2023-03-12T02:28:49;0.60;;;0.60;;
65289;SDS011;51893;59.754;10.110;2023-03-12T02:31:20;0.90;;;0.90;;
65289;SDS011;51893;59.754;10.110;2023-03-12T02:33:51;1.70;;;1.20;;
65289;SDS011;51893;59.754;10.110;2023-03-12T02:36:24;3.10;;;1.10;;
65289;SDS011;51893;59.754;10.110;2023-03-12T02:38:53;3.30;;;2.00;;
65289;SDS011;51893;59.754;10.110;2023-03-12T02:41:34;1.00;;;0.80;;
65289;SDS011;51893;59.754;10.110;2023-03-12T02:44:06;1.10;;;1.00;;
65289;SDS011;51893;59.754;10.110;2023-03-12T02:46:42;1.40;;;1.10;;
65289;SDS011;51893;59.754;10.110;2023-03-12T02:49:12;0.70;;;0.70;;
65289;SDS011;51893;59.754;10.110;2023-03-12T02:51:43;0.70;;;0.70;;
65289;SDS011;51893;59.754;10.110;2023-03-12T02:54:13;0.70;;;0.70;;
65289;SDS011;51893;59.754;10.110;2023-03-12T02:56:43;0.70;;;0.70;;
65289;SDS011;51893;59.754;10.110;2023-03-12T02:59:15;0.70;;;0.70;;
65289;SDS011;51893;59.754;10.110;2023-03-12T03:01:45;1.30;;;0.80;;
65289;SDS011;51893;59.754;10.110;2023-03-12T03:04:13;0.80;;;0.80;;
65289;SDS011;51893;59.754;10.110;2023-03-12T03:06:42;1.20;;;0.90;;
65289;SDS011;51893;59.754;10.110;2023-03-12T03:09:11;2.00;;;0.70;;
65289;SDS011;51893;59.754;10.110;2023-03-12T03:11:41;1.10;;;1.00;;
65289;SDS011;51893;59.754;10.110;2023-03-12T03:14:10;0.70;;;0.70;;
65289;SDS011;51893;59.754;10.110;2023-03-12T03:16:39;0.60;;;0.60;;
65289;SDS011;51893;59.754;10.110;2023-03-12T03:19:07;0.80;;;0.80;;
65289;SDS011;51893;59.754;10.110;2023-03-12T03:21:38;0.60;;;0.60;;
65289;SDS011;51893;59.754;10.110;2023-03-12T03:24:07;1.10;;;0.60;;
65289;SDS011;51893;59.754;10.110;2023-03-12T03:26:35;0.60;;;0.60;;
65289;SDS011;51893;59.754;10.110;2023-03-12T03:29:05;1.10;;;0.60;;
65289;SDS011;51893;59.754;10.110;2023-03-12T03:31:33;1.30;;;0.70;;
65289;SDS011;51893;59.754;10.110;2023-03-12T03:34:05;1.10;;;0.90;;
65289;SDS011;51893;59.754;10.110;2023-03-12T03:36:32;2.20;;;0.70;;
65289;SDS011;51893;59.754;10.110;2023-03-12T03:39:01;1.00;;;0.60;;
65289;SDS011;51893;59.754;10.110;2023-03-12T03:41:35;0.60;;;0.60;;
65289;SDS011;51893;59.754;10.110;2023-03-12T03:44:04;0.90;;;0.70;;
65289;SDS011;51893;59.754;10.110;2023-03-12T03:46:34;0.90;;;0.80;;
65289;SDS011;51893;59.754;10.110;2023-03-12T03:49:06;2.00;;;0.70;;
65289;SDS011;51893;59.754;10.110;2023-03-12T03:51:35;0.40;;;0.40;;
65289;SDS011;51893;59.754;10.110;2023-03-12T03:54:03;0.60;;;0.50;;
65289;SDS011;51893;59.754;10.110;2023-03-12T03:56:31;1.90;;;0.90;;
65289;SDS011;51893;59.754;10.110;2023-03-12T03:58:59;0.70;;;0.60;;
65289;SDS011;51893;59.754;10.110;2023-03-12T04:01:31;0.50;;;0.50;;
65289;SDS011;51893;59.754;10.110;2023-03-12T04:04:02;3.20;;;0.70;;
65289;SDS011;51893;59.754;10.110;2023-03-12T04:06:31;0.60;;;0.60;;
65289;SDS011;51893;59.754;10.110;2023-03-12T04:08:59;0.50;;;0.50;;
65289;SDS011;51893;59.754;10.110;2023-03-12T04:11:31;0.40;;;0.40;;
65289;SDS011;51893;59.754;10.110;2023-03-12T04:13:59;0.70;;;0.70;;
65289;SDS011;51893;59.754;10.110;2023-03-12T04:16:27;0.50;;;0.50;;
65289;SDS011;51893;59.754;10.110;2023-03-12T04:18:59;0.50;;;0.50;;
65289;SDS011;51893;59.754;10.110;2023-03-12T04:21:27;7.80;;;0.80;;
65289;SDS011;51893;59.754;10.110;2023-03-12T04:23:56;0.70;;;0.70;;
65289;SDS011;51893;59.754;10.110;2023-03-12T04:26:28;0.80;;;0.70;;
65289;SDS011;51893;59.754;10.110;2023-03-12T04:28:56;0.50;;;0.50;;
65289;SDS011;51893;59.754;10.110;2023-03-12T04:31:27;0.70;;;0.60;;
65289;SDS011;51893;59.754;10.110;2023-03-12T04:33:59;0.50;;;0.50;;
65289;SDS011;51893;59.754;10.110;2023-03-12T04:36:29;0.60;;;0.60;;
65289;SDS011;51893;59.754;10.110;2023-03-12T04:38:57;1.30;;;0.70;;
65289;SDS011;51893;59.754;10.110;2023-03-12T04:41:28;0.70;;;0.70;;
65289;SDS011;51893;59.754;10.110;2023-03-12T04:43:57;1.10;;;0.80;;
65289;SDS011;51893;59.754;10.110;2023-03-12T04:46:25;1.00;;;0.80;;
65289;SDS011;51893;59.754;10.110;2023-03-12T04:48:53;1.50;;;1.20;;
65289;SDS011;51893;59.754;10.110;2023-03-12T04:51:25;3.50;;;1.40;;
65289;SDS011;51893;59.754;10.110;2023-03-12T04:53:56;0.80;;;0.80;;
65289;SDS011;51893;59.754;10.110;2023-03-12T04:56:28;0.50;;;0.50;;
65289;SDS011;51893;59.754;10.110;2023-03-12T04:58:56;1.00;;;0.60;;
65289;SDS011;51893;59.754;10.110;2023-03-12T05:01:26;1.20;;;0.70;;
65289;SDS011;51893;59.754;10.110;2023-03-12T05:03:59;0.60;;;0.40;;
65289;SDS011;51893;59.754;10.110;2023-03-12T05:06:27;0.60;;;0.60;;
65289;SDS011;51893;59.754;10.110;2023-03-12T05:08:56;0.70;;;0.70;;
65289;SDS011;51893;59.754;10.110;2023-03-12T05:11:24;0.50;;;0.50;;
65289;SDS011;51893;59.754;10.110;2023-03-12T05:13:52;0.60;;;0.60;;
65289;SDS011;51893;59.754;10.110;2023-03-12T05:16:23;0.50;;;0.50;;
65289;SDS011;51893;59.754;10.110;2023-03-12T05:18:51;1.00;;;0.70;;
65289;SDS011;51893;59.754;10.110;2023-03-12T05:21:20;0.60;;;0.60;;
65289;SDS011;51893;59.754;10.110;2023-03-12T05:23:50;0.80;;;0.80;;
65289;SDS011;51893;59.754;10.110;2023-03-12T05:26:28;0.60;;;0.60;;
65289;SDS011;51893;59.754;10.110;2023-03-12T05:29:00;1.10;;;0.70;;
65289;SDS011;51893;59.754;10.110;2023-03-12T05:31:29;0.80;;;0.80;;
65289;SDS011;51893;59.754;10.110;2023-03-12T05:34:03;5.40;;;0.80;;
65289;SDS011;51893;59.754;10.110;2023-03-12T05:36:31;0.90;;;0.90;;
65289;SDS011;51893;59.754;10.110;2023-03-12T05:38:59;1.80;;;0.80;;
65289;SDS011;51893;59.754;10.110;2023-03-12T05:41:30;0.60;;;0.60;;
65289;SDS011;51893;59.754;10.110;2023-03-12T05:43:58;0.60;;;0.60;;
65289;SDS011;51893;59.754;10.110;2023-03-12T05:46:28;1.10;;;0.90;;
65289;SDS011;51893;59.754;10.110;2023-03-12T05:48:56;0.80;;;0.80;;
65289;SDS011;51893;59.754;10.110;2023-03-12T05:51:25;1.30;;;1.20;;
65289;SDS011;51893;59.754;10.110;2023-03-12T05:53:53;0.70;;;0.70;;
65289;SDS011;51893;59.754;10.110;2023-03-12T05:56:23;0.90;;;0.70;;
65289;SDS011;51893;59.754;10.110;2023-03-12T05:58:52;0.60;;;0.60;;
65289;SDS011;51893;59.754;10.110;2023-03-12T06:01:26;1.10;;;0.60;;
65289;SDS011;51893;59.754;10.110;2023-03-12T06:03:56;0.90;;;0.70;;
65289;SDS011;51893;59.754;10.110;2023-03-12T06:06:29;2.40;;;0.90;;
65289;SDS011;51893;59.754;10.110;2023-03-12T06:09:01;0.80;;;0.70;;
65289;SDS011;51893;59.754;10.110;2023-03-12T06:11:33;0.50;;;0.50;;
65289;SDS011;51893;59.754;10.110;2023-03-12T06:14:03;0.80;;;0.80;;
65289;SDS011;51893;59.754;10.110;2023-03-12T06:16:31;0.70;;;0.70;;
65289;SDS011;51893;59.754;10.110;2023-03-12T06:19:02;0.80;;;0.80;;
65289;SDS011;51893;59.754;10.110;2023-03-12T06:21:34;0.70;;;0.70;;
65289;SDS011;51893;59.754;10.110;2023-03-12T06:24:05;0.70;;;0.70;;
65289;SDS011;51893;59.754;10.110;2023-03-12T06:26:37;2.30;;;1.30;;
65289;SDS011;51893;59.754;10.110;2023-03-12T06:29:05;1.20;;;1.10;;
65289;SDS011;51893;59.754;10.110;2023-03-12T06:31:34;1.20;;;1.00;;
65289;SDS011;51893;59.754;10.110;2023-03-12T06:34:07;1.00;;;0.90;;
65289;SDS011;51893;59.754;10.110;2023-03-12T06:36:36;3.90;;;1.20;;
65289;SDS011;51893;59.754;10.110;2023-03-12T06:39:05;1.40;;;1.20;;
65289;SDS011;51893;59.754;10.110;2023-03-12T06:41:33;3.80;;;1.10;;
65289;SDS011;51893;59.754;10.110;2023-03-12T06:44:01;2.70;;;1.00;;
65289;SDS011;51893;59.754;10.110;2023-03-12T06:46:32;1.80;;;1.20;;
65289;SDS011;51893;59.754;10.110;2023-03-12T06:49:01;4.60;;;1.00;;
65289;SDS011;51893;59.754;10.110;2023-03-12T06:51:32;1.00;;;1.00;;
65289;SDS011;51893;59.754;10.110;2023-03-12T06:54:02;0.80;;;0.80;;
65289;SDS011;51893;59.754;10.110;2023-03-12T06:56:32;2.10;;;1.20;;
65289;SDS011;51893;59.754;10.110;2023-03-12T06:58:59;2.50;;;1.00;;
65289;SDS011;51893;59.754;10.110;2023-03-12T07:01:28;2.80;;;1.10;;
65289;SDS011;51893;59.754;10.110;2023-03-12T07:03:56;2.60;;;1.80;;
65289;SDS011;51893;59.754;10.110;2023-03-12T07:06:24;1.20;;;1.10;;
65289;SDS011;51893;59.754;10.110;2023-03-12T07:08:53;2.20;;;0.90;;
65289;SDS011;51893;59.754;10.110;2023-03-12T07:11:22;1.60;;;1.10;;
65289;SDS011;51893;59.754;10.110;2023-03-12T07:13:49;1.10;;;0.90;;
65289;SDS011;51893;59.754;10.110;2023-03-12T07:16:19;1.50;;;1.00;;
65289;SDS011;51893;59.754;10.110;2023-03-12T07:18:47;1.30;;;1.20;;
65289;SDS011;51893;59.754;10.110;2023-03-12T07:21:16;1.20;;;0.90;;
65289;SDS011;51893;59.754;10.110;2023-03-12T07:23:51;0.90;;;0.90;;
65289;SDS011;51893;59.754;10.110;2023-03-12T07:26:20;1.50;;;1.20;;
65289;SDS011;51893;59.754;10.110;2023-03-12T07:28:48;1.70;;;1.30;;
65289;SDS011;51893;59.754;10.110;2023-03-12T07:31:17;1.60;;;1.40;;
65289;SDS011;51893;59.754;10.110;2023-03-12T07:33:45;1.10;;;1.00;;
65289;SDS011;51893;59.754;10.110;2023-03-12T07:36:13;2.60;;;1.60;;
65289;SDS011;51893;59.754;10.110;2023-03-12T07:38:44;9.70;;;3.10;;
65289;SDS011;51893;59.754;10.110;2023-03-12T07:41:20;3.40;;;1.90;;
65289;SDS011;51893;59.754;10.110;2023-03-12T07:43:48;15.50;;;8.00;;
65289;SDS011;51893;59.754;10.110;2023-03-12T07:46:18;11.40;;;6.00;;
65289;SDS011;51893;59.754;10.110;2023-03-12T07:48:49;8.40;;;6.50;;
65289;SDS011;51893;59.754;10.110;2023-03-12T07:51:20;3.80;;;2.50;;
65289;SDS011;51893;59.754;10.110;2023-03-12T07:53:48;2.30;;;2.10;;
65289;SDS011;51893;59.754;10.110;2023-03-12T07:56:24;5.60;;;2.00;;
65289;SDS011;51893;59.754;10.110;2023-03-12T07:58:53;3.60;;;1.60;;
65289;SDS011;51893;59.754;10.110;2023-03-12T08:01:23;1.30;;;1.10;;
65289;SDS011;51893;59.754;10.110;2023-03-12T08:03:59;2.20;;;1.00;;
65289;SDS011;51893;59.754;10.110;2023-03-12T08:06:29;6.10;;;2.90;;
65289;SDS011;51893;59.754;10.110;2023-03-12T08:08:58;2.10;;;1.40;;
65289;SDS011;51893;59.754;10.110;2023-03-12T08:11:28;1.30;;;1.20;;
65289;SDS011;51893;59.754;10.110;2023-03-12T08:13:56;3.50;;;1.60;;
65289;SDS011;51893;59.754;10.110;2023-03-12T08:16:24;3.40;;;1.80;;
65289;SDS011;51893;59.754;10.110;2023-03-12T08:18:52;6.10;;;1.90;;
65289;SDS011;51893;59.754;10.110;2023-03-12T08:21:21;1.60;;;1.50;;
65289;SDS011;51893;59.754;10.110;2023-03-12T08:23:54;1.60;;;1.40;;
65289;SDS011;51893;59.754;10.110;2023-03-12T08:26:22;3.40;;;1.20;;
65289;SDS011;51893;59.754;10.110;2023-03-12T08:28:51;3.10;;;1.40;;
65289;SDS011;51893;59.754;10.110;2023-03-12T08:31:18;3.50;;;2.10;;
65289;SDS011;51893;59.754;10.110;2023-03-12T08:33:47;5.00;;;1.50;;
65289;SDS011;51893;59.754;10.110;2023-03-12T08:36:18;1.30;;;1.00;;
65289;SDS011;51893;59.754;10.110;2023-03-12T08:38:49;1.00;;;1.00;;
65289;SDS011;51893;59.754;10.110;2023-03-12T08:41:20;2.10;;;1.20;;
65289;SDS011;51893;59.754;10.110;2023-03-12T08:43:49;2.10;;;1.20;;
65289;SDS011;51893;59.754;10.110;2023-03-12T08:46:20;1.10;;;1.00;;
65289;SDS011;51893;59.754;10.110;2023-03-12T08:48:49;1.20;;;1.10;;
65289;SDS011;51893;59.754;10.110;2023-03-12T08:51:21;1.30;;;0.90;;
65289;SDS011;51893;59.754;10.110;2023-03-12T08:53:49;2.80;;;2.00;;
65289;SDS011;51893;59.754;10.110;2023-03-12T08:56:20;2.60;;;1.90;;
65289;SDS011;51893;59.754;10.110;2023-03-12T08:58:49;2.10;;;1.80;;
65289;SDS011;51893;59.754;10.110;2023-03-12T09:01:19;3.10;;;1.70;;
65289;SDS011;51893;59.754;10.110;2023-03-12T09:03:47;5.60;;;1.80;;
65289;SDS011;51893;59.754;10.110;2023-03-12T09:06:17;1.70;;;1.00;;
65289;SDS011;51893;59.754;10.110;2023-03-12T09:08:46;2.00;;;1.10;;
65289;SDS011;51893;59.754;10.110;2023-03-12T09:11:15;4.60;;;1.30;;
65289;SDS011;51893;59.754;10.110;2023-03-12T09:13:44;2.50;;;1.40;;
65289;SDS011;51893;59.754;10.110;2023-03-12T09:16:32;3.30;;;0.90;;
65289;SDS011;51893;59.754;10.110;2023-03-12T09:19:01;0.90;;;0.90;;
65289;SDS011;51893;59.754;10.110;2023-03-12T09:21:30;2.30;;;1.10;;
65289;SDS011;51893;59.754;10.110;2023-03-12T09:23:58;3.80;;;1.40;;
65289;SDS011;51893;59.754;10.110;2023-03-12T09:26:27;1.00;;;0.80;;
65289;SDS011;51893;59.754;10.110;2023-03-12T09:28:55;2.90;;;1.10;;
65289;SDS011;51893;59.754;10.110;2023-03-12T09:31:25;2.20;;;1.10;;
65289;SDS011;51893;59.754;10.110;2023-03-12T09:33:53;1.50;;;1.10;;
65289;SDS011;51893;59.754;10.110;2023-03-12T09:36:21;3.80;;;1.80;;
65289;SDS011;51893;59.754;10.110;2023-03-12T09:38:51;4.20;;;2.00;;
65289;SDS011;51893;59.754;10.110;2023-03-12T09:41:21;4.20;;;2.10;;
65289;SDS011;51893;59.754;10.110;2023-03-12T09:46:32;3.40;;;2.10;;
65289;SDS011;51893;59.754;10.110;2023-03-12T09:49:28;4.90;;;2.00;;
65289;SDS011;51893;59.754;10.110;2023-03-12T09:55:12;5.90;;;2.20;;
65289;SDS011;51893;59.754;10.110;2023-03-12T09:57:43;3.00;;;1.60;;
65289;SDS011;51893;59.754;10.110;2023-03-12T10:00:15;3.40;;;1.90;;
65289;SDS011;51893;59.754;10.110;2023-03-12T10:03:08;7.70;;;2.20;;
65289;SDS011;51893;59.754;10.110;2023-03-12T10:06:10;5.10;;;2.50;;
65289;SDS011;51893;59.754;10.110;2023-03-12T10:11:44;2.90;;;1.30;;
65289;SDS011;51893;59.754;10.110;2023-03-12T10:14:55;2.90;;;2.00;;
65289;SDS011;51893;59.754;10.110;2023-03-12T10:17:47;4.20;;;2.40;;
65289;SDS011;51893;59.754;10.110;2023-03-12T10:20:52;4.00;;;1.80;;
65289;SDS011;51893;59.754;10.110;2023-03-12T10:26:23;4.30;;;2.10;;
65289;SDS011;51893;59.754;10.110;2023-03-12T10:31:46;12.60;;;2.30;;
65289;SDS011;51893;59.754;10.110;2023-03-12T10:34:29;5.90;;;2.30;;
65289;SDS011;51893;59.754;10.110;2023-03-12T10:37:06;9.00;;;2.60;;
65289;SDS011;51893;59.754;10.110;2023-03-12T10:39:43;3.40;;;2.10;;
65289;SDS011;51893;59.754;10.110;2023-03-12T10:42:16;14.10;;;3.30;;
65289;SDS011;51893;59.754;10.110;2023-03-12T10:44:51;4.60;;;2.10;;
65289;SDS011;51893;59.754;10.110;2023-03-12T10:47:42;3.00;;;1.50;;
65289;SDS011;51893;59.754;10.110;2023-03-12T10:50:18;8.30;;;2.30;;
65289;SDS011;51893;59.754;10.110;2023-03-12T10:53:11;4.70;;;1.60;;
65289;SDS011;51893;59.754;10.110;2023-03-12T10:56:16;3.30;;;1.50;;
65289;SDS011;51893;59.754;10.110;2023-03-12T10:58:51;1.40;;;1.30;;
65289;SDS011;51893;59.754;10.110;2023-03-12T11:01:33;2.20;;;1.90;;
65289;SDS011;51893;59.754;10.110;2023-03-12T11:04:17;2.30;;;1.80;;
65289;SDS011;51893;59.754;10.110;2023-03-12T11:09:44;1.30;;;1.20;;
65289;SDS011;51893;59.754;10.110;2023-03-12T11:12:27;5.60;;;1.40;;
65289;SDS011;51893;59.754;10.110;2023-03-12T11:14:58;1.50;;;1.30;;
65289;SDS011;51893;59.754;10.110;2023-03-12T11:17:28;4.70;;;1.30;;
65289;SDS011;51893;59.754;10.110;2023-03-12T11:19:56;3.90;;;2.20;;
65289;SDS011;51893;59.754;10.110;2023-03-12T11:22:33;3.50;;;1.50;;
65289;SDS011;51893;59.754;10.110;2023-03-12T11:25:05;3.90;;;1.90;;
65289;SDS011;51893;59.754;10.110;2023-03-12T11:27:45;10.00;;;2.20;;
65289;SDS011;51893;59.754;10.110;2023-03-12T11:30:28;4.10;;;2.20;;
65289;SDS011;51893;59.754;10.110;2023-03-12T11:33:03;2.20;;;1.60;;
65289;SDS011;51893;59.754;10.110;2023-03-12T11:44:49;4.20;;;1.90;;
65289;SDS011;51893;59.754;10.110;2023-03-12T11:47:36;8.70;;;2.00;;
65289;SDS011;51893;59.754;10.110;2023-03-12T11:53:19;4.50;;;2.30;;
65289;SDS011;51893;59.754;10.110;2023-03-12T11:56:28;4.00;;;2.10;;
65289;SDS011;51893;59.754;10.110;2023-03-12T11:59:26;3.30;;;1.60;;
65289;SDS011;51893;59.754;10.110;2023-03-12T12:05:47;7.10;;;2.10;;
65289;SDS011;51893;59.754;10.110;2023-03-12T12:15:21;1.40;;;1.30;;
65289;SDS011;51893;59.754;10.110;2023-03-12T12:18:25;7.40;;;1.90;;
65289;SDS011;51893;59.754;10.110;2023-03-12T12:21:18;5.00;;;2.50;;
65289;SDS011;51893;59.754;10.110;2023-03-12T12:33:26;4.90;;;1.40;;
65289;SDS011;51893;59.754;10.110;2023-03-12T12:36:08;3.40;;;1.40;;
65289;SDS011;51893;59.754;10.110;2023-03-12T12:38:43;4.90;;;1.20;;
65289;SDS011;51893;59.754;10.110;2023-03-12T12:41:26;4.00;;;0.90;;
65289;SDS011;51893;59.754;10.110;2023-03-12T12:44:10;1.80;;;1.00;;
65289;SDS011;51893;59.754;10.110;2023-03-12T12:46:46;4.70;;;1.70;;
65289;SDS011;51893;59.754;10.110;2023-03-12T12:49:22;4.90;;;1.80;;
65289;SDS011;51893;59.754;10.110;2023-03-12T12:51:59;6.30;;;1.60;;
65289;SDS011;51893;59.754;10.110;2023-03-12T12:54:55;12.40;;;3.20;;
65289;SDS011;51893;59.754;10.110;2023-03-12T12:58:02;6.20;;;1.90;;
65289;SDS011;51893;59.754;10.110;2023-03-12T13:00:49;5.70;;;2.10;;
65289;SDS011;51893;59.754;10.110;2023-03-12T13:03:22;2.40;;;1.40;;
65289;SDS011;51893;59.754;10.110;2023-03-12T13:05:58;1.70;;;1.40;;
65289;SDS011;51893;59.754;10.110;2023-03-12T13:14:12;7.90;;;1.90;;
65289;SDS011;51893;59.754;10.110;2023-03-12T13:16:43;3.20;;;1.00;;
65289;SDS011;51893;59.754;10.110;2023-03-12T13:22:28;2.00;;;1.70;;
65289;SDS011;51893;59.754;10.110;2023-03-12T13:30:53;5.30;;;2.40;;
65289;SDS011;51893;59.754;10.110;2023-03-12T13:36:23;3.90;;;1.30;;
65289;SDS011;51893;59.754;10.110;2023-03-12T13:38:59;6.80;;;3.30;;
65289;SDS011;51893;59.754;10.110;2023-03-12T13:44:37;27.40;;;8.10;;
65289;SDS011;51893;59.754;10.110;2023-03-12T13:47:27;5.60;;;2.30;;
65289;SDS011;51893;59.754;10.110;2023-03-12T13:50:03;10.30;;;2.60;;
65289;SDS011;51893;59.754;10.110;2023-03-12T13:52:58;13.10;;;1.40;;
65289;SDS011;51893;59.754;10.110;2023-03-12T13:55:35;6.10;;;1.70;;
65289;SDS011;51893;59.754;10.110;2023-03-12T13:58:15;12.90;;;2.00;;
65289;SDS011;51893;59.754;10.110;2023-03-12T14:00:59;1.50;;;1.40;;
65289;SDS011;51893;59.754;10.110;2023-03-12T14:03:44;8.10;;;1.20;;
65289;SDS011;51893;59.754;10.110;2023-03-12T14:06:21;8.10;;;2.00;;
65289;SDS011;51893;59.754;10.110;2023-03-12T14:17:58;6.40;;;2.80;;
65289;SDS011;51893;59.754;10.110;2023-03-12T14:20:36;8.10;;;2.20;;
65289;SDS011;51893;59.754;10.110;2023-03-12T14:23:08;5.90;;;1.80;;
65289;SDS011;51893;59.754;10.110;2023-03-12T14:25:45;6.30;;;1.30;;
65289;SDS011;51893;59.754;10.110;2023-03-12T14:28:19;10.10;;;1.50;;
65289;SDS011;51893;59.754;10.110;2023-03-12T14:31:12;5.80;;;1.30;;
65289;SDS011;51893;59.754;10.110;2023-03-12T14:37:00;5.80;;;1.40;;
65289;SDS011;51893;59.754;10.110;2023-03-12T14:39:57;1.60;;;1.10;;
65289;SDS011;51893;59.754;10.110;2023-03-12T14:42:33;1.70;;;1.00;;
65289;SDS011;51893;59.754;10.110;2023-03-12T14:45:12;3.50;;;0.90;;
65289;SDS011;51893;59.754;10.110;2023-03-12T14:47:44;1.00;;;1.00;;
65289;SDS011;51893;59.754;10.110;2023-03-12T14:50:27;2.90;;;1.70;;
65289;SDS011;51893;59.754;10.110;2023-03-12T14:53:17;9.40;;;2.20;;
65289;SDS011;51893;59.754;10.110;2023-03-12T14:56:05;5.10;;;2.20;;
65289;SDS011;51893;59.754;10.110;2023-03-12T14:58:59;7.20;;;2.50;;
65289;SDS011;51893;59.754;10.110;2023-03-12T15:01:33;3.10;;;2.30;;
65289;SDS011;51893;59.754;10.110;2023-03-12T15:04:15;4.40;;;2.00;;
65289;SDS011;51893;59.754;10.110;2023-03-12T15:06:52;3.80;;;2.00;;
65289;SDS011;51893;59.754;10.110;2023-03-12T15:09:26;3.70;;;1.70;;
65289;SDS011;51893;59.754;10.110;2023-03-12T15:11:59;9.90;;;2.20;;
65289;SDS011;51893;59.754;10.110;2023-03-12T15:14:37;6.20;;;2.00;;
65289;SDS011;51893;59.754;10.110;2023-03-12T15:17:18;4.00;;;2.00;;
65289;SDS011;51893;59.754;10.110;2023-03-12T15:19:48;6.40;;;1.80;;
65289;SDS011;51893;59.754;10.110;2023-03-12T15:22:20;4.10;;;1.70;;
65289;SDS011;51893;59.754;10.110;2023-03-12T15:31:12;3.90;;;1.90;;
65289;SDS011;51893;59.754;10.110;2023-03-12T15:33:44;3.90;;;2.20;;
65289;SDS011;51893;59.754;10.110;2023-03-12T15:36:22;17.40;;;2.80;;
65289;SDS011;51893;59.754;10.110;2023-03-12T15:38:56;10.90;;;1.70;;
65289;SDS011;51893;59.754;10.110;2023-03-12T15:41:43;11.00;;;1.90;;
65289;SDS011;51893;59.754;10.110;2023-03-12T15:44:20;3.10;;;2.20;;
65289;SDS011;51893;59.754;10.110;2023-03-12T15:47:09;6.80;;;1.90;;
65289;SDS011;51893;59.754;10.110;2023-03-12T15:49:40;5.30;;;1.80;;
65289;SDS011;51893;59.754;10.110;2023-03-12T15:55:05;6.80;;;1.70;;
65289;SDS011;51893;59.754;10.110;2023-03-12T15:57:47;4.50;;;1.80;;
65289;SDS011;51893;59.754;10.110;2023-03-12T16:00:43;6.10;;;2.10;;
65289;SDS011;51893;59.754;10.110;2023-03-12T16:03:16;12.80;;;2.40;;
65289;SDS011;51893;59.754;10.110;2023-03-12T16:05:49;6.70;;;2.30;;
65289;SDS011;51893;59.754;10.110;2023-03-12T16:08:33;6.90;;;2.80;;
65289;SDS011;51893;59.754;10.110;2023-03-12T16:11:22;21.70;;;3.40;;
65289;SDS011;51893;59.754;10.110;2023-03-12T16:16:43;16.70;;;3.60;;
65289;SDS011;51893;59.754;10.110;2023-03-12T16:19:18;20.90;;;2.30;;
65289;SDS011;51893;59.754;10.110;2023-03-12T16:21:52;9.90;;;1.80;;
65289;SDS011;51893;59.754;10.110;2023-03-12T16:24:23;9.40;;;1.80;;
65289;SDS011;51893;59.754;10.110;2023-03-12T16:26:57;9.10;;;2.00;;
65289;SDS011;51893;59.754;10.110;2023-03-12T16:29:35;7.40;;;2.10;;
65289;SDS011;51893;59.754;10.110;2023-03-12T16:32:17;3.70;;;1.30;;
65289;SDS011;51893;59.754;10.110;2023-03-12T16:34:45;5.60;;;1.90;;
65289;SDS011;51893;59.754;10.110;2023-03-12T16:37:14;3.90;;;1.70;;
65289;SDS011;51893;59.754;10.110;2023-03-12T16:39:42;4.60;;;1.90;;
65289;SDS011;51893;59.754;10.110;2023-03-12T16:42:17;5.50;;;1.80;;
65289;SDS011;51893;59.754;10.110;2023-03-12T16:44:47;12.40;;;2.00;;
65289;SDS011;51893;59.754;10.110;2023-03-12T16:47:15;12.20;;;2.00;;
65289;SDS011;51893;59.754;10.110;2023-03-12T16:49:45;8.20;;;2.30;;